createdAt,value
2022-11-24T00:00:11.470Z,4.80
2022-11-24T00:01:15.902Z,4.35
2022-11-24T00:02:19.540Z,3.90
2022-11-24T00:03:22.111Z,4.80
2022-11-24T00:04:25.818Z,4.20
2022-11-24T00:05:28.152Z,4.82
2022-11-24T00:06:33.427Z,4.75
2022-11-24T00:07:35.844Z,4.72
2022-11-24T00:08:40.724Z,4.20
2022-11-24T00:09:43.044Z,4.57
2022-11-24T00:10:46.326Z,4.70
2022-11-24T00:11:48.640Z,4.55
2022-11-24T00:12:51.931Z,4.97
2022-11-24T00:13:54.337Z,5.28
2022-11-24T00:14:57.719Z,5.00
2022-11-24T00:16:09.684Z,4.90
2022-11-24T00:17:13.039Z,4.93
2022-11-24T00:18:15.345Z,4.75
2022-11-24T00:19:19.932Z,5.25
2022-11-24T00:20:22.391Z,4.40
2022-11-24T00:21:27.461Z,4.88
2022-11-24T00:22:29.803Z,5.28
2022-11-24T00:23:33.706Z,5.03
2022-11-24T00:24:36.186Z,4.65
2022-11-24T00:25:39.618Z,4.95
2022-11-24T00:26:43.320Z,4.80
2022-11-24T00:27:45.777Z,4.70
2022-11-24T00:28:50.454Z,5.40
2022-11-24T00:29:52.796Z,4.70
2022-11-24T00:30:56.186Z,4.97
2022-11-24T00:31:59.999Z,4.90
2022-11-24T00:33:03.443Z,5.57
2022-11-24T00:34:08.015Z,5.13
2022-11-24T00:35:11.374Z,4.95
2022-11-24T00:36:14.577Z,4.85
2022-11-24T00:37:17.878Z,4.43
2022-11-24T00:38:20.319Z,5.30
2022-11-24T00:39:23.872Z,4.80
2022-11-24T00:40:29.656Z,4.80
2022-11-24T00:41:35.677Z,5.05
2022-11-24T00:42:37.984Z,4.85
2022-11-24T00:43:41.343Z,5.30
2022-11-24T00:44:43.699Z,4.80
2022-11-24T00:45:47.146Z,5.05
2022-11-24T00:46:49.662Z,5.05
2022-11-24T00:47:54.439Z,4.70
2022-11-24T00:49:00.369Z,4.85
2022-11-24T00:50:02.727Z,4.80
2022-11-24T00:51:08.199Z,4.82
2022-11-24T00:52:10.600Z,4.65
2022-11-24T00:53:14.275Z,5.00
2022-11-24T00:54:17.071Z,4.70
2022-11-24T00:55:21.147Z,4.65
2022-11-24T00:56:23.661Z,4.97
2022-11-24T00:57:26.814Z,4.25
2022-11-24T00:58:29.063Z,5.10
2022-11-24T00:59:32.642Z,4.43
2022-11-24T01:00:35.390Z,5.15
2022-11-24T01:01:39.378Z,4.60
2022-11-24T01:02:41.940Z,4.88
2022-11-24T01:03:48.159Z,4.63
2022-11-24T01:04:50.763Z,4.72
2022-11-24T01:05:54.531Z,5.20
2022-11-24T01:06:57.368Z,4.68
2022-11-24T01:08:01.330Z,5.00
2022-11-24T01:09:05.672Z,4.50
2022-11-24T01:10:09.161Z,4.95
2022-11-24T01:11:15.118Z,4.28
2022-11-24T01:12:18.284Z,5.25
2022-11-24T01:13:22.789Z,5.20
2022-11-24T01:14:26.172Z,4.47
2022-11-24T01:15:30.258Z,4.65
2022-11-24T01:16:35.010Z,4.72
2022-11-24T01:17:38.294Z,4.80
2022-11-24T01:18:40.527Z,4.75
2022-11-24T01:19:47.147Z,4.82
2022-11-24T01:20:49.331Z,4.68
2022-11-24T01:21:52.555Z,4.50
2022-11-24T01:22:54.880Z,4.57
2022-11-24T01:23:59.012Z,4.88
2022-11-24T01:25:01.183Z,5.10
2022-11-24T01:26:06.747Z,4.65
2022-11-24T01:27:09.154Z,4.53
2022-11-24T01:28:12.415Z,4.55
2022-11-24T01:29:14.661Z,4.53
2022-11-24T01:30:18.845Z,5.00
2022-11-24T01:31:21.423Z,4.53
2022-11-24T01:32:24.712Z,4.75
2022-11-24T01:33:27.230Z,4.60
2022-11-24T01:34:31.370Z,4.60
2022-11-24T01:35:36.599Z,5.10
2022-11-24T01:36:40.390Z,4.88
2022-11-24T01:37:42.845Z,5.43
2022-11-24T01:38:46.100Z,4.53
2022-11-24T01:39:48.272Z,5.13
2022-11-24T01:40:51.501Z,5.25
2022-11-24T01:41:53.909Z,4.82
2022-11-24T01:42:57.651Z,4.70
2022-11-24T01:44:00.257Z,4.82
2022-11-24T01:45:29.297Z,4.70
2022-11-24T01:46:39.723Z,4.50
2022-11-24T01:47:42.272Z,4.85
2022-11-24T01:48:50.489Z,4.88
2022-11-24T01:49:56.142Z,4.38
2022-11-24T01:51:08.390Z,4.68
2022-11-24T01:52:15.483Z,4.95
2022-11-24T01:53:18.696Z,4.28
2022-11-24T01:54:25.226Z,4.35
2022-11-24T01:55:33.146Z,4.93
2022-11-24T01:56:39.573Z,5.32
2022-11-24T01:57:45.862Z,4.65
2022-11-24T01:58:49.814Z,5.03
2022-11-24T01:59:57.140Z,4.57
2022-11-24T02:01:00.508Z,4.90
2022-11-24T02:02:03.928Z,4.80
2022-11-24T02:03:06.684Z,5.00
2022-11-24T02:04:13.971Z,4.20
2022-11-24T02:05:21.787Z,5.30
2022-11-24T02:06:28.979Z,4.70
2022-11-24T02:07:31.952Z,5.40
2022-11-24T02:08:42.898Z,4.88
2022-11-24T02:09:50.329Z,4.65
2022-11-24T02:10:55.438Z,5.25
2022-11-24T02:11:59.718Z,4.88
2022-11-24T02:13:03.148Z,4.93
2022-11-24T02:14:06.101Z,4.93
2022-11-24T02:15:11.878Z,5.00
2022-11-24T02:16:14.115Z,5.20
2022-11-24T02:17:17.497Z,4.78
2022-11-24T02:18:19.704Z,5.47
2022-11-24T02:19:34.083Z,5.07
2022-11-24T02:20:36.671Z,5.13
2022-11-24T02:21:41.296Z,5.20
2022-11-24T02:22:47.999Z,5.00
2022-11-24T02:23:58.474Z,5.00
2022-11-24T02:25:06.988Z,5.13
2022-11-24T02:26:20.167Z,4.72
2022-11-24T02:27:23.806Z,5.22
2022-11-24T02:28:30.172Z,5.18
2022-11-24T02:29:32.421Z,5.40
2022-11-24T02:30:36.356Z,5.43
2022-11-24T02:31:40.951Z,5.22
2022-11-24T02:32:44.496Z,5.20
2022-11-24T02:33:48.939Z,5.88
2022-11-24T02:35:01.339Z,5.25
2022-11-24T02:36:03.902Z,5.65
2022-11-24T02:37:07.089Z,5.50
2022-11-24T02:38:11.556Z,5.90
2022-11-24T02:39:16.275Z,4.88
2022-11-24T02:40:24.984Z,5.82
2022-11-24T02:41:30.178Z,5.00
2022-11-24T02:42:38.494Z,5.80
2022-11-24T02:43:46.058Z,5.03
2022-11-24T02:44:51.203Z,4.97
2022-11-24T02:45:54.475Z,5.00
2022-11-24T02:47:04.031Z,5.40
2022-11-24T02:48:07.858Z,5.03
2022-11-24T02:49:10.032Z,6.00
2022-11-24T02:50:13.305Z,5.63
2022-11-24T02:51:15.616Z,5.43
2022-11-24T02:52:18.980Z,5.75
2022-11-24T02:53:21.261Z,5.45
2022-11-24T02:54:24.481Z,5.28
2022-11-24T02:55:26.680Z,5.30
2022-11-24T02:56:29.962Z,5.57
2022-11-24T02:57:33.628Z,5.57
2022-11-24T02:58:36.960Z,5.60
2022-11-24T02:59:39.164Z,5.72
2022-11-24T03:00:42.442Z,5.55
2022-11-24T03:01:44.752Z,5.55
2022-11-24T03:02:48.425Z,5.20
2022-11-24T03:03:50.611Z,4.90
2022-11-24T03:04:53.881Z,5.43
2022-11-24T03:05:56.140Z,5.22
2022-11-24T03:06:59.448Z,5.25
2022-11-24T03:08:01.645Z,5.20
2022-11-24T03:09:05.234Z,5.38
2022-11-24T03:10:07.800Z,5.32
2022-11-24T03:11:11.044Z,5.43
2022-11-24T03:12:13.228Z,5.78
2022-11-24T03:13:18.086Z,5.78
2022-11-24T03:14:20.524Z,5.30
2022-11-24T03:15:24.303Z,5.10
2022-11-24T03:16:26.825Z,5.28
2022-11-24T03:17:30.395Z,5.50
2022-11-24T03:18:32.616Z,5.10
2022-11-24T03:19:36.015Z,5.47
2022-11-24T03:20:38.407Z,5.28
2022-11-24T03:21:41.687Z,5.07
2022-11-24T03:22:44.145Z,5.03
2022-11-24T03:23:48.031Z,5.95
2022-11-24T03:24:50.237Z,5.43
2022-11-24T03:25:53.471Z,5.07
2022-11-24T03:26:55.975Z,5.38
2022-11-24T03:27:59.445Z,5.45
2022-11-24T03:29:03.441Z,5.30
2022-11-24T03:30:08.199Z,5.57
2022-11-24T03:31:11.551Z,5.25
2022-11-24T03:32:14.829Z,4.97
2022-11-24T03:33:17.016Z,6.07
2022-11-24T03:34:20.412Z,5.80
2022-11-24T03:35:22.733Z,5.13
2022-11-24T03:36:26.135Z,5.45
2022-11-24T03:37:29.603Z,5.40
2022-11-24T03:38:32.931Z,5.22
2022-11-24T03:39:35.152Z,5.03
2022-11-24T03:40:38.335Z,4.88
2022-11-24T03:41:40.481Z,5.07
2022-11-24T03:42:43.692Z,4.95
2022-11-24T03:43:45.981Z,5.50
2022-11-24T03:44:50.649Z,5.70
2022-11-24T03:45:52.824Z,5.85
2022-11-24T03:46:56.067Z,5.15
2022-11-24T03:47:58.276Z,5.50
2022-11-24T03:49:01.717Z,5.38
2022-11-24T03:50:04.625Z,5.28
2022-11-24T03:51:08.563Z,5.20
2022-11-24T03:52:10.757Z,5.55
2022-11-24T03:53:13.913Z,5.43
2022-11-24T03:54:16.127Z,5.57
2022-11-24T03:55:19.368Z,5.57
2022-11-24T03:56:21.627Z,4.82
2022-11-24T03:57:24.803Z,5.68
2022-11-24T03:58:27.120Z,5.57
2022-11-24T03:59:30.244Z,5.13
2022-11-24T04:00:33.806Z,5.53
2022-11-24T04:01:37.101Z,5.50
2022-11-24T04:02:39.396Z,5.28
2022-11-24T04:03:42.620Z,4.97
2022-11-24T04:04:50.546Z,4.95
2022-11-24T04:05:53.776Z,4.88
2022-11-24T04:06:56.035Z,5.10
2022-11-24T04:08:02.972Z,5.10
2022-11-24T04:09:05.199Z,5.10
2022-11-24T04:10:09.251Z,5.43
2022-11-24T04:11:31.708Z,5.57
2022-11-24T04:12:46.077Z,4.95
2022-11-24T04:13:49.286Z,5.55
2022-11-24T04:14:51.343Z,5.78
2022-11-24T04:15:55.988Z,5.22
2022-11-24T04:16:58.257Z,4.95
2022-11-24T04:18:01.338Z,5.32
2022-11-24T04:19:03.681Z,5.40
2022-11-24T04:20:07.617Z,5.30
2022-11-24T04:21:09.682Z,5.25
2022-11-24T04:22:12.730Z,5.60
2022-11-24T04:23:14.824Z,5.50
2022-11-24T04:24:17.893Z,5.60
2022-11-24T04:25:20.026Z,5.93
2022-11-24T04:26:23.274Z,5.43
2022-11-24T04:27:25.387Z,6.25
2022-11-24T04:28:28.442Z,5.65
2022-11-24T04:29:30.570Z,5.25
2022-11-24T04:30:33.660Z,5.72
2022-11-24T04:31:37.114Z,5.38
2022-11-24T04:32:40.278Z,5.15
2022-11-24T04:33:42.317Z,5.60
2022-11-24T04:34:45.416Z,5.30
2022-11-24T04:35:47.570Z,5.95
2022-11-24T04:36:50.735Z,6.22
2022-11-24T04:37:52.834Z,5.90
2022-11-24T04:39:23.250Z,5.82
2022-11-24T04:40:19.506Z,5.60
2022-11-24T04:41:21.588Z,5.70
2022-11-24T04:42:24.656Z,5.72
2022-11-24T04:43:26.693Z,5.28
2022-11-24T04:44:29.923Z,5.78
2022-11-24T04:45:32.027Z,5.25
2022-11-24T04:46:35.157Z,5.47
2022-11-24T04:47:39.550Z,5.28
2022-11-24T04:48:43.202Z,5.13
2022-11-24T04:49:46.905Z,5.18
2022-11-24T04:50:50.014Z,5.28
2022-11-24T04:51:53.101Z,5.03
2022-11-24T04:52:55.200Z,5.72
2022-11-24T04:53:58.268Z,4.53
2022-11-24T04:55:00.397Z,5.57
2022-11-24T04:56:06.198Z,4.97
2022-11-24T04:57:09.649Z,5.10
2022-11-24T04:58:13.092Z,5.03
2022-11-24T04:59:15.423Z,5.30
2022-11-24T05:00:19.757Z,4.85
2022-11-24T05:01:21.851Z,4.85
2022-11-24T05:02:25.487Z,5.53
2022-11-24T05:03:28.932Z,5.53
2022-11-24T05:04:32.466Z,5.50
2022-11-24T05:05:34.850Z,5.60
2022-11-24T05:06:37.980Z,5.30
2022-11-24T05:07:40.106Z,5.60
2022-11-24T05:08:43.209Z,5.15
2022-11-24T05:10:03.931Z,5.30
2022-11-24T05:11:07.979Z,5.22
2022-11-24T05:12:10.131Z,5.65
2022-11-24T05:13:14.459Z,5.20
2022-11-24T05:14:16.512Z,5.78
2022-11-24T05:15:19.727Z,5.35
2022-11-24T05:16:22.801Z,5.40
2022-11-24T05:17:25.047Z,5.38
2022-11-24T05:18:30.029Z,5.07
2022-11-24T05:19:32.541Z,5.45
2022-11-24T05:20:36.089Z,5.20
2022-11-24T05:21:38.113Z,5.07
2022-11-24T05:22:41.212Z,5.35
2022-11-24T05:23:43.412Z,5.18
2022-11-24T05:24:46.486Z,4.95
2022-11-24T05:25:48.528Z,5.45
2022-11-24T05:26:51.561Z,5.07
2022-11-24T05:27:53.616Z,5.28
2022-11-24T05:28:56.733Z,6.22
2022-11-24T05:29:58.975Z,5.88
2022-11-24T05:31:02.662Z,6.25
2022-11-24T05:32:05.146Z,5.70
2022-11-24T05:33:08.832Z,6.00
2022-11-24T05:34:14.230Z,5.35
2022-11-24T05:35:18.863Z,5.65
2022-11-24T05:36:39.414Z,6.32
2022-11-24T05:37:42.468Z,6.32
2022-11-24T05:38:44.494Z,5.82
2022-11-24T05:39:47.663Z,6.28
2022-11-24T05:40:49.693Z,6.20
2022-11-24T05:41:53.147Z,6.22
2022-11-24T05:42:55.181Z,6.50
2022-11-24T05:43:58.254Z,6.05
2022-11-24T05:45:00.329Z,5.85
2022-11-24T05:46:03.539Z,5.95
2022-11-24T05:47:05.659Z,5.68
2022-11-24T05:48:11.674Z,5.60
2022-11-24T05:49:15.091Z,6.10
2022-11-24T05:50:20.265Z,6.13
2022-11-24T05:51:22.315Z,6.18
2022-11-24T05:52:25.417Z,6.13
2022-11-24T05:53:27.473Z,6.18
2022-11-24T05:54:30.659Z,6.38
2022-11-24T05:55:33.766Z,7.45
2022-11-24T05:56:35.877Z,6.60
2022-11-24T05:57:39.225Z,6.45
2022-11-24T05:58:42.526Z,6.50
2022-11-24T05:59:45.983Z,7.38
2022-11-24T06:00:48.381Z,7.15
2022-11-24T06:01:51.569Z,7.05
2022-11-24T06:02:54.051Z,6.68
2022-11-24T06:03:57.294Z,6.55
2022-11-24T06:05:00.757Z,7.72
2022-11-24T06:06:04.260Z,7.13
2022-11-24T06:07:07.832Z,7.00
2022-11-24T06:08:10.928Z,6.95
2022-11-24T06:09:13.043Z,7.53
2022-11-24T06:10:16.677Z,7.53
2022-11-24T06:11:18.729Z,7.53
2022-11-24T06:12:21.909Z,7.90
2022-11-24T06:13:24.044Z,7.35
2022-11-24T06:14:27.381Z,7.18
2022-11-24T06:15:30.475Z,6.93
2022-11-24T06:16:32.610Z,7.65
2022-11-24T06:17:35.726Z,8.13
2022-11-24T06:18:38.218Z,7.63
2022-11-24T06:19:42.236Z,7.75
2022-11-24T06:21:02.822Z,8.43
2022-11-24T06:22:08.931Z,8.05
2022-11-24T06:23:12.311Z,8.10
2022-11-24T06:24:14.763Z,8.85
2022-11-24T06:25:18.216Z,7.88
2022-11-24T06:26:20.321Z,7.40
2022-11-24T06:27:23.495Z,7.53
2022-11-24T06:28:25.917Z,7.10
2022-11-24T06:29:28.997Z,7.95
2022-11-24T06:30:31.190Z,7.90
2022-11-24T06:31:34.758Z,7.40
2022-11-24T06:32:37.057Z,7.35
2022-11-24T06:33:40.310Z,7.15
2022-11-24T06:34:42.818Z,7.53
2022-11-24T06:35:47.419Z,7.07
2022-11-24T06:36:49.528Z,7.30
2022-11-24T06:37:52.583Z,7.55
2022-11-24T06:38:54.655Z,6.78
2022-11-24T06:39:57.764Z,7.38
2022-11-24T06:41:01.185Z,7.07
2022-11-24T06:42:05.004Z,7.03
2022-11-24T06:43:07.067Z,7.63
2022-11-24T06:44:10.320Z,7.28
2022-11-24T06:45:13.356Z,7.35
2022-11-24T06:46:15.577Z,7.88
2022-11-24T06:47:18.700Z,7.93
2022-11-24T06:48:20.838Z,8.20
2022-11-24T06:49:23.949Z,7.47
2022-11-24T06:50:29.299Z,8.20
2022-11-24T06:51:37.823Z,7.68
2022-11-24T06:52:39.921Z,8.10
2022-11-24T06:53:43.151Z,8.65
2022-11-24T06:54:45.252Z,8.70
2022-11-24T06:55:48.596Z,8.50
2022-11-24T06:56:56.633Z,8.35
2022-11-24T06:57:58.757Z,8.65
2022-11-24T06:59:02.974Z,8.13
2022-11-24T07:00:06.411Z,8.23
2022-11-24T07:01:09.906Z,8.55
2022-11-24T07:02:12.074Z,8.75
2022-11-24T07:03:18.951Z,8.48
2022-11-24T07:04:22.044Z,9.20
2022-11-24T07:05:24.077Z,8.88
2022-11-24T07:06:28.421Z,9.05
2022-11-24T07:07:32.916Z,8.90
2022-11-24T07:08:35.029Z,8.98
2022-11-24T07:09:38.098Z,9.00
2022-11-24T07:10:41.241Z,8.82
2022-11-24T07:11:44.631Z,9.35
2022-11-24T07:12:47.831Z,8.93
2022-11-24T07:13:55.135Z,9.30
2022-11-24T07:15:01.443Z,10.57
2022-11-24T07:16:11.799Z,9.75
2022-11-24T07:17:14.882Z,9.57
2022-11-24T07:18:16.980Z,9.68
2022-11-24T07:19:24.578Z,9.73
2022-11-24T07:20:28.342Z,9.75
2022-11-24T07:21:31.644Z,9.57
2022-11-24T07:22:35.530Z,8.65
2022-11-24T07:23:38.916Z,8.63
2022-11-24T07:24:41.995Z,9.13
2022-11-24T07:25:44.156Z,9.30
2022-11-24T07:26:47.280Z,9.50
2022-11-24T07:27:49.313Z,9.25
2022-11-24T07:28:52.375Z,9.18
2022-11-24T07:29:54.419Z,10.43
2022-11-24T07:30:57.735Z,10.18
2022-11-24T07:32:05.172Z,10.90
2022-11-24T07:33:08.893Z,11.68
2022-11-24T07:34:11.974Z,10.57
2022-11-24T07:35:15.036Z,11.55
2022-11-24T07:36:18.278Z,10.00
2022-11-24T07:37:22.261Z,10.88
2022-11-24T07:38:31.008Z,10.57
2022-11-24T07:39:35.181Z,10.40
2022-11-24T07:40:38.445Z,10.07
2022-11-24T07:41:40.505Z,9.57
2022-11-24T07:42:45.967Z,9.32
2022-11-24T07:43:48.981Z,10.63
2022-11-24T07:44:52.952Z,10.48
2022-11-24T07:45:55.382Z,10.13
2022-11-24T07:46:58.732Z,9.70
2022-11-24T07:48:01.164Z,10.57
2022-11-24T07:49:04.363Z,10.50
2022-11-24T07:50:09.716Z,9.63
2022-11-24T07:51:13.170Z,10.40
2022-11-24T07:52:15.261Z,10.45
2022-11-24T07:53:18.635Z,10.27
2022-11-24T07:54:23.102Z,9.60
2022-11-24T07:55:25.166Z,9.73
2022-11-24T07:56:28.342Z,10.65
2022-11-24T07:57:30.930Z,9.90
2022-11-24T07:58:35.425Z,9.95
2022-11-24T07:59:38.813Z,10.05
2022-11-24T08:00:41.633Z,11.10
2022-11-24T08:01:45.414Z,9.93
2022-11-24T08:02:47.594Z,10.20
2022-11-24T08:03:50.754Z,10.13
2022-11-24T08:04:52.963Z,10.10
2022-11-24T08:06:22.332Z,9.68
2022-11-24T08:07:19.473Z,9.90
2022-11-24T08:08:22.200Z,9.13
2022-11-24T08:09:26.701Z,9.40
2022-11-24T08:10:28.776Z,10.13
2022-11-24T08:11:32.957Z,9.32
2022-11-24T08:12:36.087Z,9.27
2022-11-24T08:13:38.140Z,9.65
2022-11-24T08:14:41.247Z,9.13
2022-11-24T08:15:43.292Z,9.80
2022-11-24T08:16:46.421Z,9.77
2022-11-24T08:17:49.500Z,9.45
2022-11-24T08:18:53.230Z,9.27
2022-11-24T08:19:56.323Z,9.73
2022-11-24T08:21:00.022Z,9.40
2022-11-24T08:22:02.090Z,9.60
2022-11-24T08:23:05.633Z,8.45
2022-11-24T08:24:09.807Z,9.02
2022-11-24T08:25:15.341Z,9.73
2022-11-24T08:26:19.389Z,8.82
2022-11-24T08:27:22.494Z,9.50
2022-11-24T08:28:24.551Z,9.50
2022-11-24T08:29:29.497Z,9.82
2022-11-24T08:30:32.963Z,9.48
2022-11-24T08:31:36.430Z,8.95
2022-11-24T08:32:38.612Z,8.90
2022-11-24T08:33:42.845Z,8.82
2022-11-24T08:34:46.000Z,8.57
2022-11-24T08:35:48.132Z,9.52
2022-11-24T08:36:51.194Z,9.45
2022-11-24T08:37:53.286Z,8.40
2022-11-24T08:38:57.231Z,9.77
2022-11-24T08:40:00.528Z,9.50
2022-11-24T08:41:05.414Z,9.63
2022-11-24T08:42:08.530Z,8.88
2022-11-24T08:43:11.603Z,8.98
2022-11-24T08:44:15.915Z,9.43
2022-11-24T08:45:21.230Z,8.32
2022-11-24T08:46:24.698Z,7.63
2022-11-24T08:47:27.811Z,8.45
2022-11-24T08:48:31.736Z,8.00
2022-11-24T08:49:34.902Z,9.18
2022-11-24T08:50:37.539Z,7.70
2022-11-24T08:51:40.590Z,7.93
2022-11-24T08:52:42.648Z,8.00
2022-11-24T08:53:46.268Z,8.00
2022-11-24T08:54:50.340Z,7.70
2022-11-24T08:55:52.478Z,8.32
2022-11-24T08:56:56.872Z,7.60
2022-11-24T08:57:58.947Z,7.20
2022-11-24T08:59:02.266Z,8.23
2022-11-24T09:00:04.993Z,6.97
2022-11-24T09:01:09.843Z,7.38
2022-11-24T09:02:13.708Z,7.82
2022-11-24T09:03:15.794Z,7.72
2022-11-24T09:04:18.930Z,7.80
2022-11-24T09:05:50.066Z,7.70
2022-11-24T09:06:44.337Z,9.02
2022-11-24T09:07:47.505Z,8.82
2022-11-24T09:08:51.249Z,8.50
2022-11-24T09:09:54.366Z,8.48
2022-11-24T09:10:59.737Z,7.47
2022-11-24T09:12:05.231Z,8.65
2022-11-24T09:13:09.603Z,8.07
2022-11-24T09:14:12.798Z,7.68
2022-11-24T09:15:17.054Z,8.38
2022-11-24T09:16:23.013Z,9.50
2022-11-24T09:17:26.290Z,7.65
2022-11-24T09:18:30.439Z,8.57
2022-11-24T09:19:33.909Z,7.68
2022-11-24T09:20:36.144Z,8.18
2022-11-24T09:21:39.382Z,7.75
2022-11-24T09:22:43.077Z,7.68
2022-11-24T09:23:46.938Z,7.65
2022-11-24T09:24:50.127Z,7.15
2022-11-24T09:25:53.279Z,7.07
2022-11-24T09:26:57.035Z,6.25
2022-11-24T09:28:00.452Z,6.45
2022-11-24T09:29:04.860Z,6.22
2022-11-24T09:30:08.426Z,6.22
2022-11-24T09:31:14.394Z,6.22
2022-11-24T09:32:17.601Z,5.57
2022-11-24T09:33:20.664Z,5.70
2022-11-24T09:34:23.740Z,5.68
2022-11-24T09:35:25.838Z,5.80
2022-11-24T09:36:29.066Z,5.80
2022-11-24T09:37:32.814Z,5.82
2022-11-24T09:38:36.630Z,5.97
2022-11-24T09:39:39.693Z,5.50
2022-11-24T09:40:41.812Z,6.30
2022-11-24T09:41:58.854Z,5.43
2022-11-24T09:43:08.404Z,5.57
2022-11-24T09:44:34.760Z,5.78
2022-11-24T09:46:05.007Z,5.28
2022-11-24T09:47:21.856Z,5.07
2022-11-24T09:48:30.969Z,4.97
2022-11-24T09:49:40.183Z,5.25
2022-11-24T09:50:47.119Z,4.72
2022-11-24T09:51:53.963Z,5.30
2022-11-24T09:53:04.299Z,5.70
2022-11-24T09:54:13.370Z,4.35
2022-11-24T09:55:33.196Z,5.13
2022-11-24T09:56:41.561Z,5.50
2022-11-24T09:57:44.026Z,6.15
2022-11-24T09:58:51.699Z,4.72
2022-11-24T09:59:59.841Z,5.32
2022-11-24T10:01:06.057Z,5.18
2022-11-24T10:02:13.115Z,4.55
2022-11-24T10:03:21.075Z,4.68
2022-11-24T10:04:28.195Z,5.25
2022-11-24T10:05:33.884Z,4.70
2022-11-24T10:06:42.049Z,4.88
2022-11-24T10:07:56.464Z,4.97
2022-11-24T10:09:14.599Z,4.60
2022-11-24T10:10:24.805Z,5.43
2022-11-24T10:12:48.964Z,5.20
2022-11-24T10:14:17.231Z,5.05
2022-11-24T10:15:28.077Z,4.80
2022-11-24T10:16:44.236Z,4.80
2022-11-24T10:18:02.413Z,5.25
2022-11-24T10:19:14.497Z,4.93
2022-11-24T10:20:26.694Z,4.95
2022-11-24T10:21:57.718Z,5.18
2022-11-24T10:25:39.839Z,4.18
2022-11-24T10:26:49.954Z,4.47
2022-11-24T10:27:57.718Z,4.90
2022-11-24T10:29:07.422Z,5.32
2022-11-24T10:30:16.848Z,5.38
2022-11-24T10:31:26.051Z,4.82
2022-11-24T10:32:34.551Z,4.97
2022-11-24T10:33:37.722Z,4.57
2022-11-24T10:34:44.748Z,4.38
2022-11-24T10:35:52.977Z,5.10
2022-11-24T10:37:03.125Z,4.70
2022-11-24T10:38:31.538Z,4.72
2022-11-24T10:39:40.534Z,4.90
2022-11-24T10:41:02.980Z,5.20
2022-11-24T10:42:13.447Z,5.00
2022-11-24T10:43:16.603Z,4.95
2022-11-24T10:44:20.156Z,5.20
2022-11-24T10:45:23.843Z,4.97
2022-11-24T10:46:28.705Z,4.35
2022-11-24T10:47:32.589Z,5.07
2022-11-24T10:48:41.704Z,5.30
2022-11-24T10:49:52.349Z,5.28
2022-11-24T10:51:06.672Z,4.97
2022-11-24T10:52:14.928Z,4.88
2022-11-24T10:53:22.858Z,4.97
2022-11-24T10:54:24.983Z,5.10
2022-11-24T10:55:28.023Z,4.97
2022-11-24T10:56:38.939Z,4.63
2022-11-24T10:57:42.266Z,4.57
2022-11-24T10:58:45.385Z,4.63
2022-11-24T10:59:49.802Z,4.47
2022-11-24T11:00:52.950Z,5.20
2022-11-24T11:01:56.770Z,5.22
2022-11-24T11:03:17.997Z,4.95
2022-11-24T11:04:21.901Z,4.78
2022-11-24T11:05:42.105Z,4.47
2022-11-24T11:06:45.699Z,4.85
2022-11-24T11:07:48.870Z,4.28
2022-11-24T11:09:20.151Z,4.75
2022-11-24T11:10:25.087Z,5.53
2022-11-24T11:11:29.936Z,5.00
2022-11-24T11:12:47.393Z,5.13
2022-11-24T11:14:01.919Z,5.47
2022-11-24T11:15:24.702Z,5.75
2022-11-24T11:16:34.562Z,5.20
2022-11-24T11:17:39.469Z,5.67
2022-11-24T11:18:49.915Z,5.38
2022-11-24T11:19:58.605Z,5.68
2022-11-24T11:21:06.273Z,4.55
2022-11-24T11:22:19.686Z,5.32
2022-11-24T11:23:28.130Z,5.40
2022-11-24T11:24:30.780Z,5.53
2022-11-24T11:25:36.480Z,4.65
2022-11-24T11:26:39.479Z,4.93
2022-11-24T11:27:43.154Z,5.32
2022-11-24T11:31:15.595Z,5.97
2022-11-24T11:34:51.493Z,4.93
2022-11-24T11:35:53.921Z,5.75
2022-11-24T11:36:59.788Z,5.05
2022-11-24T11:38:06.888Z,5.07
2022-11-24T11:39:21.326Z,5.50
2022-11-24T11:40:28.718Z,5.53
2022-11-24T11:41:34.825Z,5.78
2022-11-24T11:43:02.002Z,5.38
2022-11-24T11:44:27.303Z,5.18
2022-11-24T11:45:36.566Z,4.78
2022-11-24T11:46:38.714Z,4.95
2022-11-24T11:47:46.142Z,5.15
2022-11-24T11:48:48.680Z,5.93
2022-11-24T11:49:52.341Z,6.00
2022-11-24T11:51:23.687Z,5.55
2022-11-24T11:52:48.918Z,6.20
2022-11-24T11:54:01.906Z,6.03
2022-11-24T11:55:36.219Z,5.90
2022-11-24T11:56:45.458Z,5.43
2022-11-24T11:57:58.925Z,5.72
2022-11-24T11:59:27.628Z,5.63
2022-11-24T12:00:38.212Z,5.22
2022-11-24T12:02:05.191Z,5.72
2022-11-24T12:03:35.784Z,5.20
2022-11-24T12:04:49.627Z,5.22
2022-11-24T12:06:04.561Z,5.57
2022-11-24T12:07:36.994Z,5.05
2022-11-24T12:09:18.528Z,5.57
2022-11-24T12:10:28.184Z,5.97
2022-11-24T12:11:38.169Z,5.25
2022-11-24T12:13:28.207Z,5.60
2022-11-24T12:14:39.438Z,6.90
2022-11-24T12:15:47.945Z,5.20
2022-11-24T12:17:02.850Z,5.05
2022-11-24T12:18:40.183Z,5.60
2022-11-24T12:19:50.844Z,5.45
2022-11-24T12:21:04.505Z,5.10
2022-11-24T12:22:14.814Z,5.72
2022-11-24T12:23:46.147Z,5.35
2022-11-24T12:24:56.370Z,5.90
2022-11-24T12:26:06.905Z,5.03
2022-11-24T12:27:23.210Z,5.28
2022-11-24T12:28:38.592Z,5.55
2022-11-24T12:30:10.700Z,5.03
2022-11-24T12:31:22.961Z,4.97
2022-11-24T12:32:44.313Z,4.95
2022-11-24T12:34:14.684Z,5.30
2022-11-24T12:35:23.678Z,5.10
2022-11-24T12:36:40.139Z,5.18
2022-11-24T12:37:57.563Z,5.25
2022-11-24T12:39:07.533Z,5.18
2022-11-24T12:40:18.679Z,5.03
2022-11-24T12:41:47.553Z,5.40
2022-11-24T12:43:00.270Z,6.10
2022-11-24T12:44:05.094Z,5.10
2022-11-24T12:45:17.467Z,4.57
2022-11-24T12:46:29.489Z,5.07
2022-11-24T12:47:42.973Z,5.78
2022-11-24T12:48:57.999Z,6.75
2022-11-24T12:50:08.977Z,6.68
2022-11-24T12:51:18.695Z,6.07
2022-11-24T12:52:27.239Z,5.72
2022-11-24T12:53:34.587Z,5.35
2022-11-24T12:54:40.109Z,5.57
2022-11-24T12:55:44.381Z,5.43
2022-11-24T12:56:53.781Z,5.53
2022-11-24T12:58:09.462Z,5.35
2022-11-24T12:59:29.020Z,5.20
2022-11-24T13:00:39.869Z,5.55
2022-11-24T13:01:54.557Z,5.40
2022-11-24T13:03:11.110Z,5.75
2022-11-24T13:04:35.385Z,6.03
2022-11-24T13:05:46.782Z,5.03
2022-11-24T13:06:53.438Z,5.03
2022-11-24T13:07:59.050Z,5.10
2022-11-24T13:09:09.167Z,5.55
2022-11-24T13:10:54.672Z,5.10
2022-11-24T13:12:08.767Z,5.50
2022-11-24T13:13:12.378Z,5.18
2022-11-24T13:14:19.447Z,5.03
2022-11-24T13:15:44.699Z,5.15
2022-11-24T13:18:43.913Z,5.40
2022-11-24T13:19:47.582Z,5.07
2022-11-24T13:20:49.674Z,6.35
2022-11-24T13:22:03.870Z,5.90
2022-11-24T13:23:21.524Z,5.63
2022-11-24T13:24:26.702Z,5.10
2022-11-24T13:25:31.462Z,5.93
2022-11-24T13:26:47.332Z,5.68
2022-11-24T13:27:53.171Z,6.65
2022-11-24T13:29:08.959Z,6.07
2022-11-24T13:30:59.506Z,6.53
2022-11-24T13:32:53.060Z,6.07
2022-11-24T13:33:57.715Z,5.68
2022-11-24T13:35:13.217Z,5.70
2022-11-24T13:36:32.368Z,5.10
2022-11-24T13:37:51.685Z,5.35
2022-11-24T13:38:54.609Z,4.97
2022-11-24T13:39:59.324Z,5.18
2022-11-24T13:41:21.226Z,5.18
2022-11-24T13:42:43.776Z,5.38
2022-11-24T13:44:21.495Z,5.38
2022-11-24T13:45:50.249Z,5.05
2022-11-24T13:47:05.757Z,5.07
2022-11-24T13:49:00.137Z,5.25
2022-11-24T13:50:03.862Z,5.90
2022-11-24T13:51:23.500Z,5.82
2022-11-24T13:52:49.547Z,5.80
2022-11-24T13:53:56.131Z,5.78
2022-11-24T13:54:59.236Z,6.22
2022-11-24T13:56:09.919Z,5.93
2022-11-24T13:58:37.285Z,5.68
2022-11-24T13:59:40.542Z,5.47
2022-11-24T14:01:02.649Z,5.25
2022-11-24T14:02:23.019Z,5.80
2022-11-24T14:03:29.654Z,6.30
2022-11-24T14:04:39.439Z,5.55
2022-11-24T14:05:49.381Z,5.22
2022-11-24T14:07:05.592Z,5.88
2022-11-24T14:08:20.545Z,5.93
2022-11-24T14:09:28.069Z,6.40
2022-11-24T14:10:35.306Z,5.82
2022-11-24T14:11:38.753Z,5.97
2022-11-24T14:12:41.775Z,6.20
2022-11-24T14:13:45.281Z,6.93
2022-11-24T14:14:49.727Z,5.75
2022-11-24T14:16:04.250Z,6.18
2022-11-24T14:17:19.660Z,5.10
2022-11-24T14:18:22.542Z,5.18
2022-11-24T14:19:30.854Z,5.60
2022-11-24T14:20:36.657Z,5.68
2022-11-24T14:21:41.620Z,5.57
2022-11-24T14:22:44.913Z,4.68
2022-11-24T14:23:50.437Z,5.00
2022-11-24T14:24:56.262Z,4.82
2022-11-24T14:25:58.319Z,5.70
2022-11-24T14:27:02.183Z,5.43
2022-11-24T14:28:15.410Z,5.32
2022-11-24T14:29:20.479Z,6.10
2022-11-24T14:30:25.295Z,7.18
2022-11-24T14:31:28.400Z,6.55
2022-11-24T14:32:39.124Z,6.55
2022-11-24T14:33:41.196Z,5.63
2022-11-24T14:34:44.252Z,7.22
2022-11-24T14:35:51.531Z,5.97
2022-11-24T14:36:55.234Z,6.35
2022-11-24T14:37:58.583Z,5.65
2022-11-24T14:39:01.608Z,5.07
2022-11-24T14:40:06.106Z,6.25
2022-11-24T14:41:22.991Z,5.25
2022-11-24T14:42:28.340Z,4.85
2022-11-24T14:43:31.974Z,5.60
2022-11-24T14:44:46.412Z,4.90
2022-11-24T14:45:55.282Z,5.03
2022-11-24T14:47:04.515Z,4.70
2022-11-24T14:48:16.560Z,5.47
2022-11-24T14:49:22.393Z,4.88
2022-11-24T14:50:24.589Z,5.22
2022-11-24T14:51:31.713Z,5.10
2022-11-24T14:52:34.590Z,4.72
2022-11-24T14:53:41.681Z,5.28
2022-11-24T14:54:48.988Z,5.95
2022-11-24T14:56:23.421Z,5.43